Time;durP1;ratioP1;P1;durP2;ratioP2;P2;SDS_P1;SDS_P2;PMS_P1;PMS_P2;Temp;Humidity;BMP_temperature;BMP_pressure;BME280_temperature;BME280_humidity;BME280_pressure;Samples;Min_cycle;Max_cycle;Signal;HPM_P1;HPM_P2
2022/04/25 00:01:56;;;;;;;8.88;3.45;;;8.90;99.90;;;;;;5060526;28;20040;-73
2022/04/25 00:04:22;;;;;;;8.10;3.35;;;8.90;99.90;;;;;;5061896;28;20040;-73
2022/04/25 00:06:47;;;;;;;4.55;2.13;;;8.90;99.90;;;;;;5061939;28;20044;-73
2022/04/25 00:09:13;;;;;;;3.78;2.50;;;8.90;99.90;;;;;;5044034;28;20056;-73
2022/04/25 00:11:38;;;;;;;7.53;3.28;;;8.90;99.90;;;;;;5061531;28;20067;-73
2022/04/25 00:14:06;;;;;;;10.23;2.92;;;8.90;99.90;;;;;;5059751;28;20040;-73
2022/04/25 00:16:32;;;;;;;8.50;3.42;;;8.90;99.90;;;;;;5060044;28;20059;-73
2022/04/25 00:18:59;;;;;;;6.75;2.30;;;8.90;99.90;;;;;;5062487;28;20480;-73
2022/04/25 00:21:26;;;;;;;8.90;3.03;;;8.90;99.90;;;;;;5060799;28;20109;-73
2022/04/25 00:23:51;;;;;;;6.47;3.33;;;8.90;99.90;;;;;;5061791;28;20059;-74
2022/04/25 00:26:17;;;;;;;9.48;3.15;;;8.90;99.90;;;;;;5043459;28;20528;-74
2022/04/25 00:28:42;;;;;;;3.95;2.28;;;8.80;99.90;;;;;;5044192;28;20466;-74
2022/04/25 00:31:08;;;;;;;4.43;2.22;;;8.80;99.90;;;;;;5044057;28;20037;-74
2022/04/25 00:33:34;;;;;;;5.70;2.60;;;8.70;99.90;;;;;;5044892;28;20041;-74
2022/04/25 00:36:00;;;;;;;5.70;2.55;;;8.60;99.90;;;;;;5060262;28;20040;-74
2022/04/25 00:38:25;;;;;;;7.10;3.38;;;8.50;99.90;;;;;;5061295;28;20060;-74
2022/04/25 00:40:51;;;;;;;4.53;2.72;;;8.40;99.90;;;;;;5060655;28;20071;-74
2022/04/25 00:43:16;;;;;;;6.40;3.17;;;8.40;99.90;;;;;;5061565;28;20086;-74
2022/04/25 00:45:42;;;;;;;6.45;2.92;;;8.40;99.90;;;;;;5044959;28;20040;-74
2022/04/25 00:48:08;;;;;;;10.93;3.83;;;8.30;99.90;;;;;;5057927;28;20037;-74
2022/04/25 00:50:33;;;;;;;8.75;2.95;;;8.30;99.90;;;;;;5062371;28;20589;-74
2022/04/25 00:52:59;;;;;;;5.78;3.60;;;8.30;99.90;;;;;;5062354;28;20033;-74
2022/04/25 00:55:24;;;;;;;7.40;2.70;;;8.30;99.90;;;;;;5042846;28;20572;-74
2022/04/25 00:57:56;;;;;;;10.73;3.67;;;8.20;99.90;;;;;;5060542;28;20112;-74
2022/04/25 01:00:22;;;;;;;6.65;3.55;;;8.30;99.90;;;;;;5059352;28;20044;-74
2022/04/25 01:02:48;;;;;;;9.48;3.40;;;8.20;99.90;;;;;;5044327;28;20086;-74
2022/04/25 01:05:13;;;;;;;5.72;2.92;;;8.20;99.90;;;;;;5059988;28;20048;-74
2022/04/25 01:07:39;;;;;;;5.85;2.67;;;8.20;99.90;;;;;;5061322;28;20024;-75
2022/04/25 01:10:06;;;;;;;7.25;3.40;;;8.20;99.90;;;;;;5061155;28;20042;-74
2022/04/25 01:12:32;;;;;;;6.82;3.00;;;8.10;99.90;;;;;;5060824;28;20754;-75
2022/04/25 01:15:09;;;;;;;6.28;3.53;;;8.10;99.90;;;;;;5044017;28;20033;-74
2022/04/25 01:17:35;;;;;;;7.63;3.22;;;8.20;99.90;;;;;;5046441;28;20048;-74
2022/04/25 01:20:02;;;;;;;5.70;3.15;;;8.20;99.90;;;;;;5064472;28;20416;-74
2022/04/25 01:22:32;;;;;;;6.30;3.28;;;8.10;99.90;;;;;;5062512;28;20115;-74
2022/04/25 01:27:42;;;;;;;5.80;3.45;;;8.10;99.90;;;;;;5065054;28;20493;-74
2022/04/25 01:30:09;;;;;;;10.68;3.58;;;8.10;99.90;;;;;;5047358;28;20044;-75
2022/04/25 01:32:37;;;;;;;5.55;3.63;;;8.10;99.90;;;;;;5046243;28;20094;-73
2022/04/25 01:35:03;;;;;;;6.07;3.60;;;8.10;99.90;;;;;;5062525;28;20040;-74
2022/04/25 01:37:29;;;;;;;5.50;2.78;;;8.00;99.90;;;;;;5047131;28;20060;-73
2022/04/25 01:39:55;;;;;;;8.52;4.55;;;8.00;99.90;;;;;;5064399;28;20055;-74
2022/04/25 01:42:22;;;;;;;8.80;3.08;;;8.00;99.90;;;;;;5064399;28;20039;-74
2022/04/25 01:44:48;;;;;;;7.63;3.88;;;8.00;99.90;;;;;;5061184;28;20043;-74
2022/04/25 01:47:14;;;;;;;9.65;4.88;;;8.00;99.90;;;;;;5063427;28;20063;-74
2022/04/25 01:49:40;;;;;;;8.65;3.95;;;8.00;99.90;;;;;;5064861;28;20525;-74
2022/04/25 01:52:24;;;;;;;12.95;4.15;;;7.90;99.90;;;;;;5047192;28;20117;-74
2022/04/25 01:54:50;;;;;;;8.50;3.80;;;7.90;99.90;;;;;;5064004;28;20463;-74
2022/04/25 01:57:16;;;;;;;11.48;4.15;;;7.90;99.90;;;;;;5063352;28;20041;-74
2022/04/25 01:59:43;;;;;;;14.93;3.83;;;7.80;99.90;;;;;;5045900;28;20414;-74
2022/04/25 02:02:09;;;;;;;6.72;3.30;;;7.80;99.90;;;;;;5063851;28;20044;-74
2022/04/25 02:04:34;;;;;;;6.97;3.55;;;7.80;99.90;;;;;;5062197;28;20048;-74
2022/04/25 02:07:00;;;;;;;7.93;3.42;;;7.80;99.90;;;;;;5047573;28;20037;-74
2022/04/25 02:09:25;;;;;;;9.90;4.25;;;7.80;99.90;;;;;;5047047;28;20025;-73
2022/04/25 02:11:51;;;;;;;9.80;3.10;;;7.70;99.90;;;;;;5048161;28;20085;-74
2022/04/25 02:14:17;;;;;;;5.15;2.72;;;7.70;99.90;;;;;;5044834;28;20099;-74
2022/04/25 02:16:42;;;;;;;6.45;3.50;;;7.70;99.90;;;;;;5063744;28;20037;-74
2022/04/25 02:19:08;;;;;;;5.93;3.28;;;7.70;99.90;;;;;;5062716;28;20043;-74
2022/04/25 02:21:34;;;;;;;7.75;4.00;;;7.60;99.90;;;;;;5047064;28;20044;-74
2022/04/25 02:24:00;;;;;;;9.23;3.45;;;7.60;99.90;;;;;;5064433;28;20032;-74
2022/04/25 02:26:26;;;;;;;6.38;3.15;;;7.50;99.90;;;;;;5063386;28;20052;-74
2022/04/25 02:28:55;;;;;;;7.30;4.00;;;7.50;99.90;;;;;;5060790;28;20033;-74
2022/04/25 02:31:20;;;;;;;7.40;3.80;;;7.60;99.90;;;;;;5046365;28;20025;-74
2022/04/25 02:33:46;;;;;;;7.63;4.13;;;7.60;99.90;;;;;;5062223;28;20055;-74
2022/04/25 02:36:13;;;;;;;10.73;3.90;;;7.60;99.90;;;;;;5062092;28;20059;-74
2022/04/25 02:38:40;;;;;;;7.57;3.72;;;7.60;99.90;;;;;;5046985;28;20045;-74
2022/04/25 02:41:06;;;;;;;7.03;3.35;;;7.60;99.90;;;;;;5063274;28;20036;-74
2022/04/25 02:43:40;;;;;;;9.15;4.28;;;7.60;99.90;;;;;;5062108;28;20439;-74
2022/04/25 02:46:13;;;;;;;6.75;3.22;;;7.60;99.90;;;;;;5063275;28;20045;-74
2022/04/25 02:48:41;;;;;;;6.15;3.08;;;7.70;99.90;;;;;;5063188;28;20028;-74
2022/04/25 02:51:08;;;;;;;7.22;2.80;;;7.60;99.90;;;;;;5061268;28;20036;-74
2022/04/25 02:53:35;;;;;;;8.55;3.33;;;7.70;99.90;;;;;;5063281;28;20101;-74
2022/04/25 02:56:02;;;;;;;6.57;3.08;;;7.70;99.90;;;;;;5063460;28;20040;-74
2022/04/25 02:58:29;;;;;;;6.88;3.95;;;7.70;99.90;;;;;;5060482;28;20086;-74
2022/04/25 03:00:56;;;;;;;6.13;3.35;;;7.70;99.90;;;;;;5045271;28;20040;-74
2022/04/25 03:03:22;;;;;;;7.30;3.15;;;7.70;99.90;;;;;;5062694;28;20094;-74
2022/04/25 03:05:49;;;;;;;6.28;3.10;;;7.70;99.90;;;;;;5061880;28;20580;-74
2022/04/25 03:08:17;;;;;;;7.20;3.10;;;7.70;99.90;;;;;;5077703;28;20114;-74
2022/04/25 03:10:45;;;;;;;7.78;4.10;;;7.70;99.90;;;;;;5045851;28;20590;-74
2022/04/25 03:13:12;;;;;;;8.95;3.38;;;7.70;99.90;;;;;;5060525;28;22282;-74
2022/04/25 03:15:38;;;;;;;9.88;3.65;;;7.70;99.90;;;;;;5045947;28;20064;-74
2022/04/25 03:18:09;;;;;;;8.27;3.05;;;7.70;99.90;;;;;;5062458;28;20033;-74
2022/04/25 03:20:34;;;;;;;7.97;3.50;;;7.70;99.90;;;;;;5062237;28;20519;-74
2022/04/25 03:23:00;;;;;;;6.05;2.83;;;7.70;99.90;;;;;;5062037;28;20037;-74
2022/04/25 03:25:26;;;;;;;8.00;3.35;;;7.70;99.90;;;;;;5046781;28;20036;-74
2022/04/25 03:27:52;;;;;;;3.95;2.55;;;7.70;99.90;;;;;;5061503;28;20051;-74
2022/04/25 03:30:18;;;;;;;5.97;3.00;;;7.70;99.90;;;;;;5045564;28;20386;-74
2022/04/25 03:32:47;;;;;;;5.53;2.47;;;7.70;99.90;;;;;;5061433;28;20066;-74
2022/04/25 03:35:14;;;;;;;6.15;3.13;;;7.80;99.90;;;;;;5062415;28;20032;-74
2022/04/25 03:37:41;;;;;;;5.88;2.97;;;7.80;99.90;;;;;;5044860;28;20060;-74
2022/04/25 03:40:09;;;;;;;9.43;3.95;;;7.80;99.90;;;;;;5062068;28;20059;-74
2022/04/25 03:42:38;;;;;;;5.90;3.33;;;7.80;99.90;;;;;;5061516;28;20098;-74
2022/04/25 03:45:11;;;;;;;5.88;3.55;;;7.80;99.90;;;;;;5061551;28;20552;-74
2022/04/25 03:47:41;;;;;;;9.93;3.13;;;7.80;99.90;;;;;;5045452;28;20076;-74
2022/04/25 03:50:08;;;;;;;5.90;3.13;;;7.80;99.90;;;;;;5061704;28;20033;-74
2022/04/25 03:52:39;;;;;;;13.48;3.00;;;7.80;99.90;;;;;;5061139;28;20036;-74
2022/04/25 03:57:54;;;;;;;6.18;3.00;;;7.80;99.90;;;;;;5059601;28;20048;-74
2022/04/25 04:00:20;;;;;;;8.13;3.53;;;7.80;99.90;;;;;;5061592;28;20819;-74
2022/04/25 04:02:46;;;;;;;4.57;2.45;;;7.70;99.90;;;;;;5060515;28;20079;-74
2022/04/25 04:05:12;;;;;;;6.05;2.95;;;7.70;99.90;;;;;;5062093;28;20559;-74
2022/04/25 04:07:39;;;;;;;6.97;3.20;;;7.70;99.90;;;;;;5061651;28;20049;-74
2022/04/25 04:10:05;;;;;;;6.90;3.47;;;7.70;99.90;;;;;;5061700;28;20037;-75
2022/04/25 04:12:31;;;;;;;6.95;3.60;;;7.70;99.90;;;;;;5044622;28;20035;-74
2022/04/25 04:14:58;;;;;;;6.00;2.90;;;7.60;99.90;;;;;;5061207;28;20453;-74
2022/04/25 04:17:24;;;;;;;8.63;4.28;;;7.60;99.90;;;;;;5045276;28;20144;-74
2022/04/25 04:19:53;;;;;;;5.07;2.83;;;7.70;99.90;;;;;;5061978;28;20044;-75
2022/04/25 04:22:21;;;;;;;6.53;3.90;;;7.70;99.90;;;;;;5057644;28;20795;-74
2022/04/25 04:24:47;;;;;;;7.63;4.10;;;7.70;99.90;;;;;;5060748;28;20040;-74
2022/04/25 04:27:14;;;;;;;5.50;2.90;;;7.70;99.90;;;;;;5061385;28;20438;-75
2022/04/25 04:29:41;;;;;;;7.38;3.30;;;7.70;99.90;;;;;;5061453;28;20042;-74
2022/04/25 04:32:08;;;;;;;5.55;3.10;;;7.70;99.90;;;;;;5061910;28;20040;-74
2022/04/25 04:34:37;;;;;;;6.68;3.13;;;7.70;99.90;;;;;;5043822;28;20047;-74
2022/04/25 04:37:03;;;;;;;7.53;3.38;;;7.70;99.90;;;;;;5060289;28;20105;-74
2022/04/25 04:39:31;;;;;;;5.05;2.85;;;7.70;99.90;;;;;;5042986;28;20147;-74
2022/04/25 04:41:56;;;;;;;8.60;3.78;;;7.70;99.90;;;;;;5062249;28;20086;-74
2022/04/25 04:44:22;;;;;;;7.45;3.17;;;7.70;99.90;;;;;;5044539;28;20041;-74
2022/04/25 04:46:48;;;;;;;8.38;3.55;;;7.70;99.90;;;;;;5060956;28;20036;-74
2022/04/25 04:49:14;;;;;;;6.50;3.55;;;7.70;99.90;;;;;;5058337;28;20512;-74
2022/04/25 04:51:39;;;;;;;4.13;2.63;;;7.70;99.90;;;;;;5063864;28;20032;-75
2022/04/25 04:54:05;;;;;;;7.20;3.90;;;7.70;99.90;;;;;;5064438;28;20043;-74
2022/04/25 04:56:31;;;;;;;4.82;2.50;;;7.70;99.90;;;;;;5064648;28;20072;-74
2022/04/25 04:58:58;;;;;;;5.13;2.80;;;7.70;99.90;;;;;;5077705;28;20425;-74
2022/04/25 05:01:24;;;;;;;9.57;3.20;;;7.70;99.90;;;;;;5049361;28;20067;-74
2022/04/25 05:03:50;;;;;;;4.80;2.42;;;7.70;99.90;;;;;;5048221;28;20043;-74
2022/04/25 05:06:16;;;;;;;5.93;3.10;;;7.70;99.90;;;;;;5048696;28;20421;-74
2022/04/25 05:08:42;;;;;;;6.75;3.22;;;7.70;99.90;;;;;;5064428;28;20060;-74
2022/04/25 05:11:09;;;;;;;8.35;3.13;;;7.70;99.90;;;;;;5065191;28;20489;-75
2022/04/25 05:13:38;;;;;;;4.85;2.63;;;7.70;99.90;;;;;;5062892;28;20079;-74
2022/04/25 05:16:06;;;;;;;5.03;2.60;;;7.70;99.90;;;;;;5064337;28;20044;-74
2022/04/25 05:18:34;;;;;;;9.18;3.15;;;7.70;99.90;;;;;;5044254;28;20586;-74
2022/04/25 05:21:01;;;;;;;3.13;2.13;;;7.70;99.90;;;;;;5065261;28;20041;-74
2022/04/25 05:23:27;;;;;;;5.70;2.90;;;7.70;99.90;;;;;;5064060;28;20044;-74
2022/04/25 05:25:54;;;;;;;4.88;2.78;;;7.80;99.90;;;;;;5065298;28;20037;-75
2022/04/25 05:28:20;;;;;;;5.82;3.05;;;7.80;99.90;;;;;;5046960;28;20543;-74
2022/04/25 05:30:46;;;;;;;8.23;3.25;;;7.80;99.90;;;;;;5064239;28;20043;-74
2022/04/25 05:33:12;;;;;;;6.43;2.90;;;7.80;99.90;;;;;;5063326;28;20441;-74
2022/04/25 05:35:38;;;;;;;7.90;2.67;;;7.80;99.90;;;;;;5063355;28;20041;-74
2022/04/25 05:38:06;;;;;;;5.82;3.10;;;7.70;99.90;;;;;;5048333;28;20052;-74
2022/04/25 05:40:32;;;;;;;4.88;2.47;;;7.70;99.90;;;;;;5064142;28;20076;-74
2022/04/25 05:43:01;;;;;;;8.25;3.70;;;7.70;99.90;;;;;;5046953;28;21840;-74
2022/04/25 05:45:27;;;;;;;6.65;2.60;;;7.70;99.90;;;;;;5061296;28;20041;-74
2022/04/25 05:47:54;;;;;;;6.10;2.85;;;7.70;99.90;;;;;;5063896;28;20624;-74
2022/04/25 05:53:05;;;;;;;6.68;3.47;;;7.70;99.90;;;;;;5064219;28;22770;-74
2022/04/25 05:55:31;;;;;;;5.25;2.92;;;7.70;99.90;;;;;;5045411;28;20040;-74
2022/04/25 05:57:58;;;;;;;8.93;3.13;;;7.80;99.90;;;;;;5062479;28;20515;-74
2022/04/25 06:00:25;;;;;;;7.85;3.00;;;7.80;99.90;;;;;;5063375;28;20075;-74
2022/04/25 06:02:50;;;;;;;5.40;2.95;;;7.80;99.90;;;;;;5046731;28;20151;-74
2022/04/25 06:05:16;;;;;;;7.10;3.63;;;7.80;99.90;;;;;;5065180;28;20166;-74
2022/04/25 06:07:43;;;;;;;6.45;3.20;;;7.80;99.90;;;;;;5061061;28;20032;-74
2022/04/25 06:10:15;;;;;;;5.82;2.78;;;7.80;99.90;;;;;;5062621;28;20119;-75
2022/04/25 06:12:49;;;;;;;7.63;3.25;;;7.90;99.90;;;;;;5063762;28;20048;-75
2022/04/25 06:15:16;;;;;;;7.40;3.47;;;7.90;99.90;;;;;;5041951;28;20401;-74
2022/04/25 06:17:42;;;;;;;7.63;2.65;;;7.90;99.90;;;;;;5062562;28;20040;-73
2022/04/25 06:20:09;;;;;;;5.95;3.67;;;8.00;99.90;;;;;;5044238;28;20040;-74
2022/04/25 06:22:36;;;;;;;3.72;2.35;;;8.00;99.90;;;;;;5063492;28;20040;-74
2022/04/25 06:25:06;;;;;;;5.28;3.33;;;8.00;99.90;;;;;;5063268;28;20048;-74
2022/04/25 06:27:32;;;;;;;6.32;3.05;;;8.00;99.90;;;;;;5062134;28;20144;-74
2022/04/25 06:29:58;;;;;;;6.50;3.25;;;8.00;99.90;;;;;;5061200;28;20043;-74
2022/04/25 06:32:24;;;;;;;5.63;3.13;;;8.00;99.90;;;;;;5045351;28;20044;-74
2022/04/25 06:34:50;;;;;;;9.23;3.47;;;8.00;99.90;;;;;;5044271;28;20041;-74
2022/04/25 06:37:16;;;;;;;5.45;3.05;;;8.00;99.90;;;;;;5044922;28;20056;-74
2022/04/25 06:39:42;;;;;;;5.35;2.65;;;8.00;99.90;;;;;;5046267;28;20734;-74
2022/04/25 06:42:09;;;;;;;5.82;2.95;;;8.00;99.90;;;;;;5062320;28;20036;-74
2022/04/25 06:44:38;;;;;;;4.47;2.50;;;8.00;99.90;;;;;;5041684;28;20040;-74
2022/04/25 06:47:05;;;;;;;6.93;3.35;;;8.00;99.90;;;;;;5077703;28;20029;-74
2022/04/25 06:49:31;;;;;;;7.90;3.08;;;8.00;99.90;;;;;;5043602;28;20033;-74
2022/04/25 06:51:59;;;;;;;12.05;3.60;;;8.00;99.90;;;;;;5062202;28;20032;-74
2022/04/25 06:54:26;;;;;;;7.80;2.90;;;8.00;99.90;;;;;;5046675;28;20036;-73
2022/04/25 06:56:53;;;;;;;5.03;2.55;;;8.00;99.90;;;;;;5062508;28;20686;-74
2022/04/25 06:59:20;;;;;;;7.18;2.92;;;8.00;99.90;;;;;;5043726;28;20041;-74
2022/04/25 07:01:46;;;;;;;6.88;2.67;;;8.00;99.90;;;;;;5043422;28;20048;-74
2022/04/25 07:04:12;;;;;;;4.70;2.50;;;8.00;99.90;;;;;;5060257;28;20093;-74
2022/04/25 07:06:39;;;;;;;5.53;2.85;;;8.00;99.90;;;;;;5039106;28;20032;-74
2022/04/25 07:09:05;;;;;;;11.88;3.13;;;7.90;99.90;;;;;;5056298;28;20041;-74
2022/04/25 07:11:31;;;;;;;4.18;2.13;;;7.90;99.90;;;;;;5041578;28;20036;-74
2022/04/25 07:13:56;;;;;;;9.73;3.72;;;7.90;99.90;;;;;;5058769;28;20028;-74
2022/04/25 07:16:24;;;;;;;3.13;2.13;;;7.90;99.90;;;;;;5041088;28;20048;-74
2022/04/25 07:18:50;;;;;;;9.50;2.92;;;7.90;99.90;;;;;;5043160;28;20041;-74
2022/04/25 07:29:29;;;;;;;5.32;2.40;;;7.90;99.90;;;;;;5060771;28;20033;-74
2022/04/25 07:31:54;;;;;;;5.25;2.58;;;7.90;99.90;;;;;;5050145;28;20043;-74
2022/04/25 07:34:21;;;;;;;3.63;2.25;;;7.90;99.90;;;;;;5065851;28;20074;-74
2022/04/25 07:36:54;;;;;;;5.55;2.85;;;7.90;99.90;;;;;;5057017;28;20060;-74
2022/04/25 07:39:23;;;;;;;4.05;2.80;;;7.90;99.90;;;;;;5054758;28;20040;-74
2022/04/25 07:41:49;;;;;;;5.55;2.70;;;7.90;99.90;;;;;;5056767;28;20619;-74
2022/04/25 07:44:15;;;;;;;3.55;2.13;;;7.90;99.90;;;;;;5059293;28;20321;-74
2022/04/25 07:46:41;;;;;;;4.53;2.53;;;7.90;99.90;;;;;;5060064;28;20048;-74
2022/04/25 07:49:11;;;;;;;4.30;2.65;;;7.90;99.90;;;;;;5057795;28;20029;-74
2022/04/25 07:51:40;;;;;;;6.28;2.55;;;7.90;99.90;;;;;;5056631;28;20530;-75
2022/04/25 07:54:06;;;;;;;4.25;2.20;;;8.00;99.90;;;;;;5052129;28;20444;-74
2022/04/25 07:56:32;;;;;;;5.30;2.90;;;7.90;99.90;;;;;;5058927;28;20090;-74
2022/04/25 07:59:00;;;;;;;4.07;2.00;;;7.90;99.90;;;;;;5058215;28;20632;-74
2022/04/25 08:01:29;;;;;;;5.50;2.53;;;7.90;99.90;;;;;;5062102;28;20090;-74
2022/04/25 08:03:55;;;;;;;6.93;3.28;;;7.90;99.90;;;;;;5046717;28;20036;-74
2022/04/25 08:06:22;;;;;;;4.18;2.42;;;7.90;99.90;;;;;;5055168;28;20037;-74
2022/04/25 08:08:51;;;;;;;4.03;2.28;;;8.00;99.90;;;;;;5041018;28;20036;-74
2022/04/25 08:11:18;;;;;;;3.50;2.05;;;7.90;99.90;;;;;;5060182;28;20041;-74
2022/04/25 08:19:15;;;;;;;7.25;3.25;;;8.00;99.90;;;;;;5057927;28;20127;-74
2022/04/25 08:21:42;;;;;;;4.55;2.70;;;8.00;99.90;;;;;;5060103;28;20485;-74
2022/04/25 08:24:08;;;;;;;9.48;2.95;;;7.90;99.90;;;;;;5042456;28;20375;-74
2022/04/25 08:26:34;;;;;;;4.45;2.03;;;8.00;99.90;;;;;;5038804;28;20032;-74
2022/04/25 08:28:59;;;;;;;3.50;2.38;;;8.00;99.90;;;;;;5041647;28;20036;-74
2022/04/25 08:31:26;;;;;;;7.40;2.97;;;8.00;99.90;;;;;;5043536;28;20024;-75
2022/04/25 08:33:52;;;;;;;3.83;2.33;;;8.00;99.90;;;;;;5061911;28;20130;-74
2022/04/25 08:36:18;;;;;;;8.10;2.90;;;8.00;99.90;;;;;;5060492;28;20123;-74
2022/04/25 08:38:44;;;;;;;5.80;3.15;;;8.00;99.90;;;;;;5044077;28;20045;-74
2022/04/25 08:41:16;;;;;;;4.85;2.67;;;8.00;99.90;;;;;;5044086;28;20033;-74
2022/04/25 08:43:42;;;;;;;4.45;2.67;;;8.00;99.90;;;;;;5060468;28;20046;-74
2022/04/25 08:46:09;;;;;;;4.50;2.70;;;8.00;99.90;;;;;;5041773;28;20044;-74
2022/04/25 08:48:39;;;;;;;5.07;2.50;;;8.10;99.90;;;;;;5044012;28;20024;-74
2022/04/25 08:51:05;;;;;;;5.03;2.75;;;8.10;99.90;;;;;;5060761;28;20074;-74
2022/04/25 08:53:37;;;;;;;6.10;2.90;;;8.20;99.90;;;;;;5038974;28;20036;-74
2022/04/25 08:56:04;;;;;;;7.40;3.00;;;8.20;99.90;;;;;;5043497;28;20040;-74
2022/04/25 08:58:31;;;;;;;6.00;2.45;;;8.20;99.90;;;;;;5042555;28;20039;-74
2022/04/25 09:00:58;;;;;;;4.50;2.53;;;8.20;99.90;;;;;;5043008;28;21509;-74
2022/04/25 09:03:24;;;;;;;4.75;2.40;;;8.20;99.90;;;;;;5044144;28;20756;-74
2022/04/25 09:05:50;;;;;;;7.32;2.15;;;8.20;99.90;;;;;;5061229;28;20123;-74
2022/04/25 09:08:16;;;;;;;4.50;2.17;;;8.20;99.90;;;;;;5055310;28;20048;-74
2022/04/25 09:10:44;;;;;;;8.07;3.38;;;8.30;99.90;;;;;;5058814;28;20036;-74
2022/04/25 09:13:11;;;;;;;7.18;2.25;;;8.30;99.90;;;;;;5044350;28;20043;-74
2022/04/25 09:15:37;;;;;;;7.03;2.75;;;8.30;99.90;;;;;;5043410;28;20032;-74
2022/04/25 09:18:04;;;;;;;5.68;3.22;;;8.30;99.90;;;;;;5059073;28;20087;-74
2022/04/25 09:20:30;;;;;;;5.00;3.10;;;8.30;99.90;;;;;;5043358;28;20040;-74
2022/04/25 09:22:57;;;;;;;5.47;2.55;;;8.30;99.90;;;;;;5060978;28;20032;-74
2022/04/25 09:25:22;;;;;;;4.88;2.58;;;8.30;99.90;;;;;;5058741;28;20037;-74
2022/04/25 09:28:12;;;;;;;4.80;2.22;;;8.30;99.90;;;;;;5041971;28;20516;-72
2022/04/25 09:30:37;;;;;;;5.45;2.30;;;8.30;99.90;;;;;;5042128;28;20385;-72
2022/04/25 09:33:03;;;;;;;5.47;2.17;;;8.30;99.90;;;;;;5058990;28;20047;-73
2022/04/25 09:35:39;;;;;;;5.43;2.47;;;8.20;99.90;;;;;;5059741;28;20040;-75
2022/04/25 09:38:05;;;;;;;;;;;8.20;99.90;;;;;;5043478;28;20048;-74
2022/04/25 09:40:39;;;;;;;8.88;3.45;;;8.20;99.90;;;;;;5061990;28;20479;-75
2022/04/25 09:43:04;;;;;;;6.05;3.25;;;8.20;99.90;;;;;;5061767;28;20044;-74
2022/04/25 09:45:31;;;;;;;5.22;2.63;;;8.10;99.90;;;;;;5044084;28;20382;-75
2022/04/25 09:47:57;;;;;;;7.07;2.40;;;8.10;99.90;;;;;;5062606;28;20397;-74
2022/04/25 09:50:27;;;;;;;6.85;2.30;;;8.10;99.90;;;;;;5063166;28;20105;-75
2022/04/25 09:53:03;;;;;;;4.57;2.38;;;8.10;99.90;;;;;;5046759;28;20090;-74
2022/04/25 09:55:30;;;;;;;;;;;8.20;99.90;;;;;;5045250;28;20034;-74
2022/04/25 09:57:56;;;;;;;3.20;2.03;;;8.20;99.90;;;;;;5063908;28;19916;-74
2022/04/25 10:00:33;;;;;;;4.55;2.00;;;8.20;99.90;;;;;;5063220;28;20075;-74
2022/04/25 10:03:00;;;;;;;3.80;1.90;;;8.20;99.90;;;;;;5044472;28;20092;-74
2022/04/25 10:05:37;;;;;;;5.28;2.65;;;8.30;99.90;;;;;;5044958;28;20052;-72
2022/04/25 10:08:04;;;;;;;5.90;2.25;;;8.30;99.90;;;;;;5061651;28;20040;-74
2022/04/25 10:10:31;;;;;;;3.38;1.73;;;8.40;99.90;;;;;;5062623;28;20039;-74
2022/04/25 10:12:58;;;;;;;3.95;2.17;;;8.50;99.90;;;;;;5063779;28;20511;-74
2022/04/25 10:15:23;;;;;;;4.00;2.08;;;8.50;99.90;;;;;;5046437;28;20051;-74
2022/04/25 10:17:52;;;;;;;2.55;1.65;;;8.50;99.90;;;;;;5062137;28;20428;-74
2022/04/25 10:20:18;;;;;;;2.60;1.85;;;8.50;99.90;;;;;;5039428;28;20058;-73
2022/04/25 10:22:43;;;;;;;3.45;1.83;;;8.50;99.90;;;;;;5062367;28;20482;-73
2022/04/25 10:25:10;;;;;;;3.50;2.20;;;8.60;99.90;;;;;;5060770;28;20550;-73
2022/04/25 10:27:39;;;;;;;5.50;1.63;;;8.60;99.90;;;;;;5060458;28;20044;-73
2022/04/25 10:30:16;;;;;;;3.28;1.65;;;8.60;99.90;;;;;;5058287;28;20748;-73
2022/04/25 10:32:42;;;;;;;3.92;1.70;;;8.60;99.90;;;;;;5043729;28;20028;-73
2022/04/25 10:35:14;;;;;;;3.67;1.63;;;8.70;99.90;;;;;;5062014;28;20582;-73
2022/04/25 10:37:42;;;;;;;5.88;1.83;;;8.70;99.90;;;;;;5042068;28;20071;-74
2022/04/25 10:40:11;;;;;;;4.00;1.80;;;8.70;99.90;;;;;;5061917;28;20055;-73
2022/04/25 10:46:01;;;;;;;4.03;1.73;;;8.80;99.90;;;;;;5061413;28;20345;-73
2022/04/25 10:48:28;;;;;;;3.47;1.85;;;8.90;99.90;;;;;;5061742;28;20405;-73
2022/04/25 10:51:16;;;;;;;5.25;2.58;;;9.00;99.90;;;;;;5060471;28;20448;-73
2022/04/25 10:53:57;;;;;;;3.90;2.22;;;9.10;99.90;;;;;;5039489;28;20580;-74
2022/04/25 10:56:23;;;;;;;4.50;2.30;;;9.20;99.90;;;;;;5061153;28;20424;-74
2022/04/25 10:59:24;;;;;;;3.97;2.40;;;9.30;99.90;;;;;;5041246;28;20113;-74
2022/04/25 11:01:51;;;;;;;7.63;2.30;;;9.50;99.90;;;;;;5055251;28;20529;-74
2022/04/25 11:04:19;;;;;;;4.15;2.17;;;9.60;99.90;;;;;;5042421;28;20068;-74
2022/04/25 11:06:45;;;;;;;4.07;2.10;;;9.70;99.90;;;;;;5043757;28;20102;-74
2022/04/25 11:09:11;;;;;;;3.83;2.30;;;9.70;99.90;;;;;;5057152;28;20435;-74
2022/04/25 11:11:54;;;;;;;3.72;2.10;;;9.80;99.90;;;;;;5045489;28;20037;-74
2022/04/25 11:14:20;;;;;;;5.43;2.95;;;9.90;99.90;;;;;;5041781;28;20111;-74
2022/04/25 11:17:13;;;;;;;4.25;2.25;;;10.00;99.90;;;;;;5060312;28;20174;-74
2022/04/25 11:19:48;;;;;;;5.38;2.42;;;10.00;99.90;;;;;;5060363;28;20032;-74
2022/04/25 11:22:40;;;;;;;4.05;2.85;;;10.10;99.90;;;;;;5043755;28;20037;-74
2022/04/25 11:25:25;;;;;;;5.97;2.67;;;10.10;99.90;;;;;;5042900;28;20049;-74
2022/04/25 11:28:12;;;;;;;5.55;3.15;;;10.20;99.90;;;;;;5045766;28;20036;-74
2022/04/25 11:30:39;;;;;;;4.70;2.60;;;10.20;99.90;;;;;;5044171;28;20509;-74
2022/04/25 11:33:10;;;;;;;5.38;2.80;;;10.30;99.90;;;;;;5045520;28;20051;-74
2022/04/25 11:35:39;;;;;;;4.75;2.60;;;10.30;99.90;;;;;;5060800;28;20028;-74
2022/04/25 11:38:05;;;;;;;4.68;2.60;;;10.40;99.90;;;;;;5062244;28;20040;-74
2022/04/25 11:40:31;;;;;;;4.78;2.50;;;10.50;99.90;;;;;;5061137;28;20043;-74
2022/04/25 11:42:59;;;;;;;5.90;2.30;;;10.50;99.90;;;;;;5062634;28;20043;-74
2022/04/25 11:45:26;;;;;;;6.00;2.33;;;10.70;99.90;;;;;;5058405;28;20082;-74
2022/04/25 11:47:51;;;;;;;6.25;2.42;;;10.80;99.90;;;;;;5061947;28;20089;-74
2022/04/25 11:50:22;;;;;;;3.47;2.53;;;10.80;99.90;;;;;;5060102;28;20472;-74
2022/04/25 11:52:49;;;;;;;4.53;2.20;;;10.90;99.90;;;;;;5061745;28;20047;-74
2022/04/25 11:55:17;;;;;;;3.50;2.25;;;10.90;99.90;;;;;;5043590;28;20047;-74
2022/04/25 11:57:45;;;;;;;5.80;2.63;;;10.90;99.90;;;;;;5061826;28;20048;-74
2022/04/25 12:00:19;;;;;;;3.67;2.33;;;10.90;99.90;;;;;;5060240;28;20044;-74
2022/04/25 12:02:46;;;;;;;8.48;3.08;;;10.90;99.90;;;;;;5062103;28;20750;-74
2022/04/25 12:05:12;;;;;;;5.13;2.83;;;11.00;99.90;;;;;;5075327;28;20090;-74
2022/04/25 12:15:34;;;;;;;5.60;2.33;;;11.10;99.90;;;;;;5061509;28;20040;-74
2022/04/25 12:15:58;;;;;;;5.15;2.30;;;11.30;99.90;;;;;;5058540;28;20049;-74
2022/04/25 12:18:29;;;;;;;5.93;2.75;;;11.30;99.90;;;;;;5060334;28;20037;-74
2022/04/25 12:21:10;;;;;;;4.38;2.50;;;11.40;99.90;;;;;;5059994;28;20036;-74
2022/04/25 12:23:40;;;;;;;3.75;2.10;;;11.40;99.90;;;;;;5061522;28;20475;-74
2022/04/25 12:26:26;;;;;;;3.45;2.20;;;11.50;99.90;;;;;;5043766;28;20041;-74
2022/04/25 12:28:59;;;;;;;3.72;2.28;;;11.50;99.90;;;;;;5058030;28;20036;-74
2022/04/25 12:31:27;;;;;;;3.50;2.35;;;11.50;99.90;;;;;;5044095;28;20052;-74
2022/04/25 12:33:53;;;;;;;7.00;2.58;;;11.60;99.90;;;;;;5059770;28;20076;-74
2022/04/25 12:36:27;;;;;;;4.03;2.17;;;11.60;99.90;;;;;;5060992;28;20036;-74
2022/04/25 12:39:00;;;;;;;4.30;2.13;;;11.60;99.90;;;;;;5041507;28;20063;-74
2022/04/25 12:41:31;;;;;;;4.28;2.83;;;11.70;99.90;;;;;;5060859;28;20058;-73
2022/04/25 12:43:59;;;;;;;3.75;2.35;;;11.70;99.90;;;;;;5060185;28;20036;-73
2022/04/25 12:46:45;;;;;;;4.80;2.17;;;11.70;99.90;;;;;;5061923;28;20051;-74
2022/04/25 12:49:14;;;;;;;3.67;2.22;;;11.70;99.90;;;;;;5061044;28;20079;-74
2022/04/25 12:51:42;;;;;;;3.90;2.25;;;11.90;99.90;;;;;;5061000;28;20024;-74
2022/04/25 12:54:31;;;;;;;3.33;2.03;;;11.90;99.90;;;;;;5057389;28;20039;-74
2022/04/25 12:57:09;;;;;;;4.57;2.40;;;12.10;99.90;;;;;;5059522;28;20076;-74
2022/04/25 12:59:36;;;;;;;5.78;2.35;;;12.10;99.90;;;;;;5056185;28;20541;-73
2022/04/25 13:02:09;;;;;;;4.18;2.58;;;12.10;99.90;;;;;;5059945;28;20044;-73
2022/04/25 13:04:57;;;;;;;5.18;2.90;;;12.20;99.90;;;;;;5059593;28;20438;-73
2022/04/25 13:07:31;;;;;;;5.10;2.00;;;12.10;99.90;;;;;;5044233;28;20451;-73
2022/04/25 13:09:59;;;;;;;5.22;2.67;;;12.20;99.90;;;;;;5060572;28;20037;-73
2022/04/25 13:12:32;;;;;;;4.53;2.28;;;12.10;99.90;;;;;;5063618;28;20127;-73
2022/04/25 13:14:59;;;;;;;3.05;1.92;;;12.10;99.90;;;;;;5063284;28;20036;-73
2022/04/25 13:17:24;;;;;;;4.95;2.58;;;12.10;99.90;;;;;;5063433;28;20452;-73
2022/04/25 13:19:50;;;;;;;4.90;2.53;;;12.10;99.90;;;;;;5064894;28;20036;-73
2022/04/25 13:22:15;;;;;;;4.15;2.33;;;12.10;99.90;;;;;;5047825;28;20064;-73
2022/04/25 13:24:43;;;;;;;3.72;2.42;;;12.10;99.90;;;;;;5064338;28;20046;-73
2022/04/25 13:27:09;;;;;;;5.43;2.97;;;12.10;99.90;;;;;;5062848;28;20029;-73
2022/04/25 13:29:35;;;;;;;5.72;2.72;;;12.10;99.90;;;;;;5060057;28;20041;-73
2022/04/25 13:32:01;;;;;;;4.32;2.47;;;12.10;99.90;;;;;;5044399;28;20691;-74